Terminal Aerodrome Forecast
Issued by NWS Dodge City, KS

Home | Current Version | Previous Version | Graphics & Text | Print | Product List | Glossary Off
Versions: 1 2 3 4 5 6 7 8 9 10 11 12 13 14 15 16 17 18

000
FTUS43 KDDC 211230 AAA
TAFDDC
TAF AMD
KDDC 211230Z 2113/2212 06010KT P6SM -RA OVC040
      TEMPO 2113/2117 4SM RA BKN030
     FM211800 05010KT P6SM -RA OVC015
     FM212200 01015G25KT 2SM SHRA BR OVC008
     FM220000 36015G25KT 4SM BR OVC008=

USA.gov is the U.S. government's official web portal to all federal, state and local government web resources and services.